createdAt,value
2019-04-06T00:00:10.352Z,97999.17
2019-04-06T00:02:42.061Z,97992.27
2019-04-06T00:05:11.284Z,97968.07
2019-04-06T00:07:40.050Z,97995.36
2019-04-06T00:10:09.564Z,97997.29
2019-04-06T00:12:38.316Z,98001.55
2019-04-06T00:15:12.678Z,98003.89
2019-04-06T00:17:41.386Z,98000.50
2019-04-06T00:20:10.739Z,97993.91
2019-04-06T00:22:39.459Z,97993.23
2019-04-06T00:25:08.672Z,97996.69
2019-04-06T00:27:37.418Z,98006.58
2019-04-06T00:30:09.163Z,97998.33
2019-04-06T00:32:45.522Z,97988.87
2019-04-06T00:35:14.228Z,97992.98
2019-04-06T00:37:42.936Z,97994.61
2019-04-06T00:40:11.755Z,97994.75
2019-04-06T00:42:40.453Z,97996.88
2019-04-06T00:45:09.503Z,97999.64
2019-04-06T00:47:38.211Z,97992.27
2019-04-06T00:50:07.616Z,97991.02
2019-04-06T00:52:36.385Z,97992.01
2019-04-06T00:55:06.117Z,97992.05
2019-04-06T00:57:34.910Z,97992.80
2019-04-06T01:00:04.288Z,97993.56
2019-04-06T01:02:32.999Z,97994.14
2019-04-06T01:05:08.189Z,97993.83
2019-04-06T01:07:36.896Z,97992.62
2019-04-06T01:10:08.636Z,97987.66
2019-04-06T01:12:37.336Z,97988.59
2019-04-06T01:15:07.653Z,97982.83
2019-04-06T01:17:36.414Z,97987.13
2019-04-06T01:20:06.312Z,97987.09
2019-04-06T01:22:35.044Z,97986.20
2019-04-06T01:25:08.592Z,97981.16
2019-04-06T01:27:37.300Z,97980.80
2019-04-06T01:30:09.999Z,97981.42
2019-04-06T01:32:38.798Z,97981.02
2019-04-06T01:35:07.496Z,97984.25
2019-04-06T01:37:36.259Z,97989.17
2019-04-06T01:40:09.716Z,97976.84
2019-04-06T01:42:38.425Z,97982.33
2019-04-06T01:45:08.700Z,97977.77
2019-04-06T01:47:37.388Z,97975.09
2019-04-06T01:50:08.107Z,97970.67
2019-04-06T01:52:36.831Z,97964.83
2019-04-06T01:55:06.641Z,97969.74
2019-04-06T01:57:35.443Z,97980.97
2019-04-06T02:00:06.216Z,97975.54
2019-04-06T02:02:36.488Z,97976.84
2019-04-06T02:05:08.586Z,97977.94
2019-04-06T02:07:37.297Z,97979.15
2019-04-06T02:10:08.631Z,97976.18
2019-04-06T02:12:37.332Z,97975.89
2019-04-06T02:15:07.844Z,97977.06
2019-04-06T02:17:36.557Z,97979.95
2019-04-06T02:20:06.311Z,97983.86
2019-04-06T02:22:35.017Z,97976.14
2019-04-06T02:25:04.022Z,97974.93
2019-04-06T02:27:32.741Z,97973.55
2019-04-06T02:30:12.292Z,97971.09
2019-04-06T02:32:45.572Z,97950.37
2019-04-06T02:35:30.836Z,97979.33
2019-04-06T02:38:10.125Z,97978.09
2019-04-06T02:40:46.509Z,97978.55
2019-04-06T02:43:16.753Z,97978.59
2019-04-06T02:45:45.460Z,97981.09
2019-04-06T02:48:14.171Z,97980.14
2019-04-06T02:50:42.922Z,97982.02
2019-04-06T02:53:11.684Z,97981.66
2019-04-06T02:55:40.499Z,97984.75
2019-04-06T02:58:09.611Z,97985.96
2019-04-06T03:00:38.339Z,97985.37
2019-04-06T03:03:07.041Z,97983.38
2019-04-06T03:05:35.904Z,97977.16
2019-04-06T03:08:04.609Z,97982.39
2019-04-06T03:10:33.384Z,97982.95
2019-04-06T03:13:10.292Z,97986.95
2019-04-06T03:15:38.950Z,97981.03
2019-04-06T03:18:12.665Z,97985.30
2019-04-06T03:20:41.369Z,97980.92
2019-04-06T03:23:12.913Z,97991.41
2019-04-06T03:25:41.795Z,97991.59
2019-04-06T03:28:10.591Z,97991.98
2019-04-06T03:30:39.298Z,97997.14
2019-04-06T03:33:08.011Z,97997.36
2019-04-06T03:35:36.717Z,97997.72
2019-04-06T03:38:11.555Z,97997.43
2019-04-06T03:40:40.245Z,97999.03
2019-04-06T03:43:13.986Z,97996.30
2019-04-06T03:45:42.700Z,98001.23
2019-04-06T03:48:11.459Z,98004.11
2019-04-06T03:50:40.128Z,98004.78
2019-04-06T03:53:09.041Z,98000.80
2019-04-06T03:55:37.944Z,98004.50
2019-04-06T03:58:06.653Z,98007.31
2019-04-06T04:00:35.377Z,98007.73
2019-04-06T04:03:07.443Z,98005.27
2019-04-06T04:05:36.144Z,98014.06
2019-04-06T04:08:12.203Z,98012.84
2019-04-06T04:10:41.208Z,98014.98
2019-04-06T04:13:10.146Z,98017.25
2019-04-06T04:15:39.292Z,98015.89
2019-04-06T04:18:08.287Z,98018.68
2019-04-06T04:20:37.076Z,98016.20
2019-04-06T04:23:05.758Z,98021.42
2019-04-06T04:25:34.473Z,98021.18
2019-04-06T04:28:08.454Z,98017.40
2019-04-06T04:30:37.232Z,98023.86
2019-04-06T04:33:10.120Z,98024.80
2019-04-06T04:35:38.829Z,98029.77
2019-04-06T04:38:07.549Z,98030.51
2019-04-06T04:40:36.366Z,98034.83
2019-04-06T04:43:11.874Z,98037.91
2019-04-06T04:45:40.620Z,98040.89
2019-04-06T04:48:09.323Z,98038.53
2019-04-06T04:50:38.032Z,98045.84
2019-04-06T04:53:11.699Z,98047.29
2019-04-06T04:55:40.446Z,98041.88
2019-04-06T04:58:11.705Z,98045.10
2019-04-06T05:00:41.360Z,98046.46
2019-04-06T05:03:10.202Z,98056.41
2019-04-06T05:05:38.967Z,98052.59
2019-04-06T05:08:07.676Z,98058.20
2019-04-06T05:10:36.421Z,98061.39
2019-04-06T05:13:05.127Z,98058.37
2019-04-06T05:15:48.592Z,98062.55
2019-04-06T05:18:17.313Z,98059.59
2019-04-06T05:20:46.020Z,98068.02
2019-04-06T05:23:14.738Z,98071.03
2019-04-06T05:25:43.453Z,98070.97
2019-04-06T05:28:12.194Z,98072.70
2019-04-06T05:30:40.925Z,98069.91
2019-04-06T05:33:09.805Z,98074.20
2019-04-06T05:35:38.522Z,98077.05
2019-04-06T05:38:07.246Z,98080.37
2019-04-06T05:40:35.994Z,98084.14
2019-04-06T05:43:11.729Z,98088.73
2019-04-06T05:45:40.433Z,98080.73
2019-04-06T05:48:11.531Z,98075.42
2019-04-06T05:50:40.238Z,98076.15
2019-04-06T05:53:12.243Z,98084.91
2019-04-06T05:55:40.909Z,98079.73
2019-04-06T05:58:10.666Z,98081.69
2019-04-06T06:00:41.060Z,98086.31
2019-04-06T06:03:11.150Z,98090.39
2019-04-06T06:05:41.169Z,98093.81
2019-04-06T06:08:09.998Z,98084.31
2019-04-06T06:10:38.737Z,98087.39
2019-04-06T06:13:10.188Z,98092.28
2019-04-06T06:15:38.896Z,98091.55
2019-04-06T06:18:10.832Z,98084.34
2019-04-06T06:20:39.558Z,98086.70
2019-04-06T06:23:08.271Z,98079.98
2019-04-06T06:25:37.275Z,98078.91
2019-04-06T06:28:14.420Z,98083.05
2019-04-06T06:30:36.556Z,98085.22
2019-04-06T06:33:05.278Z,98078.63
2019-04-06T06:35:34.026Z,98079.81
2019-04-06T06:38:11.625Z,98079.23
2019-04-06T06:40:40.329Z,98075.80
2019-04-06T06:43:14.745Z,98074.73
2019-04-06T06:45:43.633Z,98080.43
2019-04-06T06:48:12.318Z,98041.20
2019-04-06T06:50:41.045Z,98084.47
2019-04-06T06:53:09.768Z,98083.25
2019-04-06T06:55:38.529Z,98085.11
2019-04-06T06:58:07.242Z,98079.17
2019-04-06T07:00:35.958Z,98082.57
2019-04-06T07:03:12.169Z,98084.83
2019-04-06T07:05:40.883Z,98077.66
2019-04-06T07:08:11.786Z,98082.34
2019-04-06T07:10:40.476Z,98081.86
2019-04-06T07:13:09.194Z,98079.34
2019-04-06T07:15:37.956Z,98082.77
2019-04-06T07:18:06.672Z,98088.76
2019-04-06T07:20:35.382Z,98084.77
2019-04-06T07:23:12.882Z,98087.17
2019-04-06T07:25:41.593Z,98093.64
2019-04-06T07:28:13.340Z,98091.00
2019-04-06T07:30:42.304Z,98083.86
2019-04-06T07:33:11.116Z,98083.73
2019-04-06T07:35:39.831Z,98081.23
2019-04-06T07:38:08.537Z,98085.00
2019-04-06T07:40:37.369Z,98084.52
2019-04-06T07:43:06.233Z,98082.59
2019-04-06T07:45:34.966Z,98087.59
2019-04-06T07:48:10.175Z,98089.16
2019-04-06T07:50:38.887Z,98085.63
2019-04-06T07:53:07.594Z,98086.72
2019-04-06T07:55:36.546Z,98088.97
2019-04-06T07:58:05.259Z,98087.25
2019-04-06T08:00:33.980Z,98085.11
2019-04-06T08:03:08.388Z,98082.27
2019-04-06T08:05:37.069Z,98083.62
2019-04-06T08:08:10.419Z,98076.00
2019-04-06T08:10:39.145Z,98079.57
2019-04-06T08:13:07.847Z,98073.30
2019-04-06T08:15:36.577Z,98079.84
2019-04-06T08:18:05.286Z,98080.95
2019-04-06T08:20:34.043Z,98072.98
2019-04-06T08:23:02.761Z,98073.36
2019-04-06T08:25:31.477Z,98071.99
2019-04-06T08:28:00.274Z,98072.73
2019-04-06T08:30:28.990Z,98072.23
2019-04-06T08:32:57.698Z,98063.84
2019-04-06T08:35:26.906Z,98068.60
2019-04-06T08:37:55.717Z,98057.28
2019-04-06T08:40:24.479Z,98056.14
2019-04-06T08:42:53.990Z,98055.94
2019-04-06T08:45:22.699Z,98055.09
2019-04-06T08:47:51.513Z,98048.28
2019-04-06T08:50:20.342Z,98048.20
2019-04-06T08:52:49.066Z,98047.69
2019-04-06T08:55:17.996Z,98050.50
2019-04-06T08:57:46.682Z,98040.08
2019-04-06T09:00:16.640Z,98035.37
2019-04-06T09:02:45.428Z,98036.01
2019-04-06T09:05:14.240Z,98038.84
2019-04-06T09:07:42.971Z,98041.77
2019-04-06T09:10:11.708Z,98038.27
2019-04-06T09:12:40.475Z,98037.52
2019-04-06T09:15:10.297Z,98042.34
2019-04-06T09:17:39.211Z,98042.89
2019-04-06T09:20:09.944Z,98037.13
2019-04-06T09:22:38.643Z,98030.75
2019-04-06T09:25:11.965Z,98033.94
2019-04-06T09:27:40.702Z,98033.20
2019-04-06T09:30:10.479Z,98026.46
2019-04-06T09:32:39.186Z,98030.88
2019-04-06T09:35:08.029Z,98025.34
2019-04-06T09:37:37.036Z,98026.72
2019-04-06T09:40:07.350Z,98037.18
2019-04-06T09:42:36.362Z,98025.95
2019-04-06T09:45:25.517Z,98022.70
2019-04-06T09:47:55.802Z,98022.62
2019-04-06T09:50:35.100Z,98021.06
2019-04-06T09:53:05.507Z,98021.28
2019-04-06T09:55:41.879Z,98014.43
2019-04-06T09:58:30.419Z,98022.18
2019-04-06T10:01:16.800Z,98017.25
2019-04-06T10:03:49.928Z,98016.98
2019-04-06T10:06:38.314Z,98007.72
2019-04-06T10:09:12.977Z,98004.09
2019-04-06T10:11:46.324Z,98001.72
2019-04-06T10:14:19.406Z,97997.72
2019-04-06T10:17:09.767Z,98000.50
2019-04-06T10:19:49.245Z,97999.31
2019-04-06T10:22:19.596Z,97993.53
2019-04-06T10:24:53.116Z,97991.28
2019-04-06T10:27:26.439Z,97983.91
2019-04-06T10:30:13.420Z,97986.30
2019-04-06T10:32:44.107Z,97989.02
2019-04-06T10:35:17.336Z,97982.22
2019-04-06T10:37:54.069Z,97978.12
2019-04-06T10:40:27.227Z,97976.89
2019-04-06T10:43:00.591Z,97971.12
2019-04-06T10:45:33.561Z,97972.22
2019-04-06T10:48:13.594Z,97965.67
2019-04-06T10:50:43.871Z,97958.97
2019-04-06T10:53:14.497Z,97961.57
2019-04-06T10:55:53.821Z,97959.64
2019-04-06T10:58:24.325Z,97952.83
2019-04-06T11:00:57.794Z,97956.38
2019-04-06T11:03:34.419Z,97955.97
2019-04-06T11:06:09.393Z,97947.16
2019-04-06T11:08:43.024Z,97949.55
2019-04-06T11:11:20.619Z,97940.52
2019-04-06T11:14:07.623Z,97931.38
2019-04-06T11:16:54.294Z,97933.33
2019-04-06T11:19:41.001Z,97923.55
2019-04-06T11:22:23.381Z,97936.19
2019-04-06T11:24:59.466Z,97927.14
2019-04-06T11:27:46.313Z,97923.20
2019-04-06T11:30:32.944Z,97912.58
2019-04-06T11:33:06.102Z,97909.55
2019-04-06T11:35:39.141Z,97911.78
2019-04-06T11:38:25.693Z,97903.06
2019-04-06T11:41:09.223Z,97902.69
2019-04-06T11:43:51.599Z,97895.26
2019-04-06T11:46:40.165Z,97895.82
2019-04-06T11:49:11.177Z,97893.16
2019-04-06T11:51:50.434Z,97889.67
2019-04-06T11:54:26.558Z,97882.78
2019-04-06T11:57:08.806Z,97878.48
2019-04-06T11:59:39.183Z,97874.13
2019-04-06T12:02:09.459Z,97869.00
2019-04-06T12:04:39.744Z,97874.20
2019-04-06T12:07:10.215Z,97868.98
2019-04-06T12:09:49.678Z,97863.34
2019-04-06T12:12:19.968Z,97854.19
2019-04-06T12:14:50.523Z,97853.75
2019-04-06T12:17:36.862Z,97848.50
2019-04-06T12:20:20.738Z,97852.02
2019-04-06T12:23:07.365Z,97845.09
2019-04-06T12:25:40.621Z,97837.22
2019-04-06T12:28:16.989Z,97838.53
2019-04-06T12:30:53.370Z,97833.73
2019-04-06T12:33:23.647Z,97834.66
2019-04-06T12:36:12.145Z,97831.58
2019-04-06T12:38:57.479Z,97825.53
2019-04-06T12:41:28.115Z,97822.92
2019-04-06T12:43:58.799Z,97813.31
2019-04-06T12:46:31.735Z,97811.22
2019-04-06T12:49:18.130Z,97807.23
2019-04-06T12:51:48.415Z,97807.22
2019-04-06T12:54:34.974Z,97797.48
2019-04-06T12:57:23.327Z,97797.07
2019-04-06T12:59:59.566Z,97790.45
2019-04-06T13:02:32.909Z,97789.12
2019-04-06T13:05:19.322Z,97786.32
2019-04-06T13:07:49.619Z,97789.59
2019-04-06T13:10:36.153Z,97778.48
2019-04-06T13:13:24.413Z,97774.19
2019-04-06T13:16:00.774Z,97774.97
2019-04-06T13:18:39.838Z,97767.59
2019-04-06T13:21:28.193Z,97760.82
2019-04-06T13:24:08.918Z,97761.68
2019-04-06T13:26:42.177Z,97762.53
2019-04-06T13:29:12.466Z,97743.64
2019-04-06T13:31:46.130Z,97753.39
2019-04-06T13:34:16.935Z,97755.51
2019-04-06T13:36:47.550Z,97754.09
2019-04-06T13:39:20.808Z,97749.98
2019-04-06T13:42:08.894Z,97742.93
2019-04-06T13:44:45.050Z,97749.77
2019-04-06T13:47:21.551Z,97750.50
2019-04-06T13:49:57.978Z,97748.59
2019-04-06T13:52:28.671Z,97742.31
2019-04-06T13:54:58.972Z,97745.63
2019-04-06T13:57:29.254Z,97739.86
2019-04-06T14:00:11.358Z,97735.28
2019-04-06T14:02:41.654Z,97741.72
2019-04-06T14:05:20.944Z,97744.89
2019-04-06T14:08:09.615Z,97752.42
2019-04-06T14:10:45.683Z,97747.77
2019-04-06T14:13:15.958Z,97739.45
2019-04-06T14:16:09.352Z,97737.94
2019-04-06T14:18:42.662Z,97750.42
2019-04-06T14:21:12.942Z,97745.77
2019-04-06T14:23:46.301Z,97743.67
2019-04-06T14:26:22.335Z,97742.47
2019-04-06T14:29:10.619Z,97748.50
2019-04-06T14:31:57.044Z,97741.45
2019-04-06T14:34:43.738Z,97738.27
2019-04-06T14:37:16.761Z,97739.57
2019-04-06T14:39:47.057Z,97741.32
2019-04-06T14:42:33.972Z,97744.45
2019-04-06T14:45:21.127Z,97744.70
2019-04-06T14:47:51.636Z,97741.75
2019-04-06T14:50:21.917Z,97740.23
2019-04-06T14:52:52.209Z,97743.41
2019-04-06T14:55:22.507Z,97743.70
2019-04-06T14:58:09.393Z,97742.83
2019-04-06T15:00:43.011Z,97743.33
2019-04-06T15:03:13.352Z,97743.69
2019-04-06T15:05:59.756Z,97736.30
2019-04-06T15:08:36.165Z,97738.27
2019-04-06T15:11:15.387Z,97742.09
2019-04-06T15:13:57.816Z,97749.92
2019-04-06T15:16:30.871Z,97750.23
2019-04-06T15:19:03.911Z,97754.20
2019-04-06T15:21:49.210Z,97756.42
2019-04-06T15:24:19.483Z,97752.14
2019-04-06T15:27:12.377Z,97751.44
2019-04-06T15:29:45.709Z,97750.99
2019-04-06T15:32:19.156Z,97757.23
2019-04-06T15:34:49.561Z,97750.33
2019-04-06T15:37:22.583Z,97753.08
2019-04-06T15:39:56.183Z,97753.11
2019-04-06T15:42:38.603Z,97754.05
2019-04-06T15:45:14.841Z,97750.56
2019-04-06T15:48:01.576Z,97748.48
2019-04-06T15:50:38.024Z,97752.50
2019-04-06T15:53:26.700Z,97761.98
2019-04-06T15:56:09.375Z,97760.66
2019-04-06T15:58:39.645Z,97750.97
2019-04-06T16:01:09.927Z,97754.52
2019-04-06T16:03:40.292Z,97754.10
2019-04-06T16:06:10.690Z,97751.45
2019-04-06T16:08:40.986Z,97754.53
2019-04-06T16:11:27.750Z,97752.86
2019-04-06T16:13:58.128Z,97752.56
2019-04-06T16:16:31.884Z,97756.05
2019-04-06T16:19:09.222Z,97756.91
2019-04-06T16:21:39.490Z,97757.86
2019-04-06T16:24:26.487Z,97763.13
2019-04-06T16:27:02.930Z,97763.53
2019-04-06T16:29:33.257Z,97767.91
2019-04-06T16:32:11.533Z,97763.14
2019-04-06T16:34:35.570Z,97762.70
2019-04-06T16:37:16.907Z,97763.55
2019-04-06T16:39:47.197Z,97763.67
2019-04-06T16:42:33.849Z,97762.38
2019-04-06T16:45:04.224Z,97762.34
2019-04-06T16:47:34.731Z,97765.44
2019-04-06T16:50:23.221Z,97772.48
2019-04-06T16:53:05.466Z,97772.48
2019-04-06T16:55:45.766Z,97775.53
2019-04-06T16:58:21.842Z,97774.26
2019-04-06T17:00:55.113Z,97768.19
2019-04-06T17:03:40.249Z,97771.70
2019-04-06T17:06:10.589Z,97773.02
2019-04-06T17:08:41.258Z,97766.55
2019-04-06T17:11:14.852Z,97767.84
2019-04-06T17:13:45.339Z,97765.25
2019-04-06T17:16:31.829Z,97765.26
2019-04-06T17:19:08.384Z,97764.36
2019-04-06T17:21:53.927Z,97775.63
2019-04-06T17:24:36.534Z,97779.12
2019-04-06T17:27:09.410Z,97787.38
2019-04-06T17:29:45.981Z,97787.38
2019-04-06T17:32:19.335Z,97790.83
2019-04-06T17:35:14.773Z,97795.63
2019-04-06T17:37:51.163Z,97799.52
2019-04-06T17:40:36.702Z,97793.44
2019-04-06T17:43:23.144Z,97794.75
2019-04-06T17:45:56.549Z,97801.68
2019-04-06T17:48:39.127Z,97798.66
2019-04-06T17:51:25.822Z,97803.41
2019-04-06T17:54:14.441Z,97799.08
2019-04-06T17:56:44.820Z,97799.94
2019-04-06T17:59:31.326Z,97798.20
2019-04-06T18:02:20.347Z,97806.89
2019-04-06T18:04:59.731Z,97808.63
2019-04-06T18:07:35.728Z,97807.74
2019-04-06T18:10:12.888Z,97810.80
2019-04-06T18:12:46.185Z,97812.95
2019-04-06T18:15:15.454Z,97817.74
2019-04-06T18:17:44.520Z,97817.30
2019-04-06T18:20:13.209Z,97820.77
2019-04-06T18:22:41.982Z,97810.36
2019-04-06T18:25:10.710Z,97812.10
2019-04-06T18:27:39.630Z,97818.19
2019-04-06T18:30:11.551Z,97819.03
2019-04-06T18:32:41.835Z,97817.74
2019-04-06T18:35:14.267Z,97828.56
2019-04-06T18:37:56.874Z,97838.97
2019-04-06T18:40:27.406Z,97841.58
2019-04-06T18:42:56.303Z,97839.82
2019-04-06T18:45:25.790Z,97839.82
2019-04-06T18:47:54.637Z,97835.47
2019-04-06T18:50:33.299Z,97836.77
2019-04-06T18:52:53.950Z,97836.34
2019-04-06T18:55:22.708Z,97834.16
2019-04-06T18:57:51.595Z,97841.06
2019-04-06T19:00:20.792Z,97839.34
2019-04-06T19:02:49.549Z,97842.31
2019-04-06T19:05:18.440Z,97842.78
2019-04-06T19:07:47.226Z,97846.67
2019-04-06T19:10:16.394Z,97842.78
2019-04-06T19:12:45.150Z,97847.56
2019-04-06T19:15:13.883Z,97848.90
2019-04-06T19:17:42.921Z,97853.22
2019-04-06T19:20:12.681Z,97847.98
2019-04-06T19:22:41.407Z,97852.34
2019-04-06T19:25:11.736Z,97853.64
2019-04-06T19:27:40.687Z,97850.20
2019-04-06T19:30:11.391Z,97849.31
2019-04-06T19:32:40.156Z,97851.50
2019-04-06T19:35:16.914Z,97851.92
2019-04-06T19:37:45.689Z,97850.99
2019-04-06T19:40:16.208Z,97866.95
2019-04-06T19:42:44.921Z,97860.30
2019-04-06T19:45:13.854Z,97862.98
2019-04-06T19:47:42.567Z,97867.14
2019-04-06T19:50:12.963Z,97867.92
2019-04-06T19:52:41.693Z,97869.94
2019-04-06T19:55:14.016Z,97864.27
2019-04-06T19:57:42.810Z,97864.67
2019-04-06T20:00:12.140Z,97869.83
2019-04-06T20:02:41.374Z,97875.11
2019-04-06T20:05:11.783Z,97874.14
2019-04-06T20:07:40.972Z,97873.72
2019-04-06T20:10:11.652Z,97874.22
2019-04-06T20:12:40.571Z,97880.21
2019-04-06T20:15:09.490Z,97879.73
2019-04-06T20:17:38.988Z,97881.85
2019-04-06T20:20:08.023Z,97885.33
2019-04-06T20:22:36.782Z,97888.78
2019-04-06T20:25:08.500Z,97889.18
2019-04-06T20:27:37.244Z,97888.59
2019-04-06T20:30:11.660Z,97891.18
2019-04-06T20:32:40.398Z,97890.67
2019-04-06T20:35:14.620Z,97892.31
2019-04-06T20:37:43.433Z,97892.30
2019-04-06T20:40:12.828Z,97900.02
2019-04-06T20:42:41.671Z,97896.97
2019-04-06T20:45:10.601Z,97902.60
2019-04-06T20:47:39.562Z,97899.55
2019-04-06T20:50:09.273Z,97896.05
2019-04-06T20:52:37.953Z,97893.52
2019-04-06T20:55:09.234Z,97893.11
2019-04-06T20:57:38.398Z,97891.67
2019-04-06T21:00:11.018Z,97900.33
2019-04-06T21:02:39.746Z,97897.27
2019-04-06T21:05:09.696Z,97898.00
2019-04-06T21:07:38.420Z,97890.60
2019-04-06T21:10:09.141Z,97888.09
2019-04-06T21:12:37.861Z,97890.63
2019-04-06T21:15:17.045Z,97889.67
2019-04-06T21:17:39.867Z,97887.06
2019-04-06T21:20:09.862Z,97891.47
2019-04-06T21:22:38.626Z,97893.20
2019-04-06T21:25:08.407Z,97891.47
2019-04-06T21:27:37.261Z,97893.95
2019-04-06T21:30:10.328Z,97889.64
2019-04-06T21:32:39.753Z,97891.81
2019-04-06T21:35:08.649Z,97898.75
2019-04-06T21:37:38.301Z,97891.45
2019-04-06T21:40:10.159Z,97893.94
2019-04-06T21:42:38.911Z,97897.67
2019-04-06T21:45:09.462Z,97898.02
2019-04-06T21:47:38.721Z,97897.84
2019-04-06T21:50:08.123Z,97892.48
2019-04-06T21:52:37.369Z,97896.69
2019-04-06T21:55:11.205Z,97897.71
2019-04-06T21:57:40.466Z,97899.89
2019-04-06T22:00:11.231Z,97901.61
2019-04-06T22:02:40.219Z,97894.45
2019-04-06T22:05:09.453Z,97894.45
2019-04-06T22:07:47.188Z,97901.36
2019-04-06T22:10:10.598Z,97898.34
2019-04-06T22:12:39.985Z,97898.34
2019-04-06T22:15:11.351Z,97890.64
2019-04-06T22:17:40.079Z,97891.04
2019-04-06T22:20:08.796Z,97895.61
2019-04-06T22:22:37.840Z,97893.62
2019-04-06T22:25:06.552Z,97892.69
2019-04-06T22:27:35.275Z,97890.96
2019-04-06T22:30:09.980Z,97892.49
2019-04-06T22:32:39.300Z,97889.05
2019-04-06T22:35:09.229Z,97897.08
2019-04-06T22:37:37.942Z,97894.09
2019-04-06T22:40:07.505Z,97893.29
2019-04-06T22:42:36.713Z,97897.52
2019-04-06T22:45:09.235Z,97892.60
2019-04-06T22:47:38.283Z,97896.65
2019-04-06T22:50:11.941Z,97901.92
2019-04-06T22:52:41.210Z,97898.97
2019-04-06T22:55:10.353Z,97896.47
2019-04-06T22:57:39.076Z,97894.12
2019-04-06T23:00:11.554Z,97897.81
2019-04-06T23:02:41.839Z,97901.00
2019-04-06T23:05:21.200Z,97896.82
2019-04-06T23:07:49.919Z,97897.45
2019-04-06T23:10:18.625Z,97895.93
2019-04-06T23:12:47.500Z,97890.86
2019-04-06T23:15:16.474Z,97890.63
2019-04-06T23:17:45.166Z,97891.95
2019-04-06T23:20:14.018Z,97883.23
2019-04-06T23:22:43.373Z,97888.09
2019-04-06T23:25:12.202Z,97886.02
2019-04-06T23:27:40.926Z,97880.04
2019-04-06T23:30:10.576Z,97877.45
2019-04-06T23:32:39.931Z,97878.38
2019-04-06T23:35:09.190Z,97869.36
2019-04-06T23:37:37.938Z,97868.05
2019-04-06T23:40:12.503Z,97864.00
2019-04-06T23:42:41.222Z,97857.14
2019-04-06T23:45:10.301Z,97857.41
2019-04-06T23:47:39.027Z,97854.44
2019-04-06T23:50:09.395Z,97851.31
2019-04-06T23:52:38.200Z,97850.66
2019-04-06T23:55:08.437Z,97853.86
2019-04-06T23:57:37.280Z,97849.21
